Time,TemperatureF,DewpointF,PressureIn,WindDirection,WindDirectionDegrees,WindSpeedMPH,WindSpeedGustMPH,Humidity,HourlyPrecipIn,Conditions,Clouds,dailyrainin,SoftwareType,DateUTC
2013-06-29 00:03:00,65.1,63.6,29.61,West,275,4.0,8.0,95,0.00,,,0.00,Wunderground v.1.15,2013-06-29 05:03:00,
2013-06-29 00:10:00,65.2,63.7,29.60,WNW,292,5.0,8.0,95,0.00,,,0.00,Wunderground v.1.15,2013-06-29 05:10:00,
2013-06-29 00:16:00,65.2,63.7,29.60,WNW,302,4.0,5.0,95,0.00,,,0.00,Wunderground v.1.15,2013-06-29 05:16:00,
2013-06-29 00:21:00,65.2,63.7,29.60,WNW,298,5.0,5.0,95,0.00,,,0.00,Wunderground v.1.15,2013-06-29 05:21:00,
2013-06-29 00:26:00,65.1,63.6,29.60,WNW,297,5.0,5.0,95,0.00,,,0.00,Wunderground v.1.15,2013-06-29 05:26:00,
2013-06-29 00:31:00,65.0,63.5,29.60,WNW,296,5.0,5.0,95,0.00,,,0.00,Wunderground v.1.15,2013-06-29 05:31:00,
2013-06-29 00:37:00,64.8,63.3,29.59,WNW,303,4.0,5.0,95,0.00,,,0.00,Wunderground v.1.15,2013-06-29 05:37:00,
2013-06-29 00:43:00,64.7,63.5,29.59,WNW,300,4.0,4.0,96,0.00,,,0.00,Wunderground v.1.15,2013-06-29 05:43:00,
2013-06-29 00:48:00,64.7,63.5,29.59,WNW,288,4.0,5.0,96,0.00,,,0.00,Wunderground v.1.15,2013-06-29 05:48:00,
2013-06-29 00:55:00,64.5,63.3,29.59,WNW,298,4.0,5.0,96,0.00,,,0.00,Wunderground v.1.15,2013-06-29 05:55:00,
2013-06-29 01:01:00,64.4,63.2,29.59,WNW,302,4.0,4.0,96,0.00,,,0.00,Wunderground v.1.15,2013-06-29 06:01:00,
2013-06-29 01:06:00,64.3,63.1,29.59,WNW,303,4.0,4.0,96,0.00,,,0.00,Wunderground v.1.15,2013-06-29 06:06:00,
2013-06-29 01:11:00,64.3,63.4,29.59,WNW,301,4.0,4.0,97,0.00,,,0.00,Wunderground v.1.15,2013-06-29 06:11:00,
2013-06-29 01:17:00,64.3,63.1,29.59,NW,312,3.0,4.0,96,0.00,,,0.00,Wunderground v.1.15,2013-06-29 06:17:00,
2013-06-29 01:22:00,64.3,63.4,29.59,NW,304,3.0,6.0,97,0.00,,,0.00,Wunderground v.1.15,2013-06-29 06:22:00,
2013-06-29 01:27:00,64.3,63.1,29.59,NW,307,4.0,6.0,96,0.00,,,0.00,Wunderground v.1.15,2013-06-29 06:27:00,
2013-06-29 01:33:00,64.3,63.1,29.59,WNW,286,4.0,7.0,96,0.00,,,0.00,Wunderground v.1.15,2013-06-29 06:33:00,
2013-06-29 01:40:00,64.2,63.0,29.59,WNW,298,4.0,7.0,96,0.00,,,0.00,Wunderground v.1.15,2013-06-29 06:40:00,
2013-06-29 01:46:00,64.1,62.9,29.59,WNW,298,4.0,5.0,96,0.00,,,0.00,Wunderground v.1.15,2013-06-29 06:46:00,
2013-06-29 01:51:00,64.1,63.2,29.59,WNW,294,4.0,4.0,97,0.00,,,0.00,Wunderground v.1.15,2013-06-29 06:51:00,
2013-06-29 01:56:00,64.0,63.1,29.59,WNW,288,5.0,7.0,97,0.00,,,0.00,Wunderground v.1.15,2013-06-29 06:56:00,
2013-06-29 02:01:00,63.9,63.0,29.59,West,277,6.0,9.0,97,0.00,,,0.00,Wunderground v.1.15,2013-06-29 07:01:00,
2013-06-29 02:07:00,63.8,62.9,29.59,WNW,288,6.0,9.0,97,0.00,,,0.00,Wunderground v.1.15,2013-06-29 07:07:00,
2013-06-29 02:13:00,63.7,62.8,29.59,WNW,300,5.0,5.0,97,0.00,,,0.00,Wunderground v.1.15,2013-06-29 07:13:00,
2013-06-29 02:18:00,63.5,62.6,29.59,WNW,302,4.0,5.0,97,0.00,,,0.00,Wunderground v.1.15,2013-06-29 07:18:00,
2013-06-29 02:25:00,63.4,62.5,29.59,WNW,297,4.0,5.0,97,0.00,,,0.00,Wunderground v.1.15,2013-06-29 07:25:00,
2013-06-29 02:31:00,63.3,62.7,29.59,WNW,303,4.0,5.0,98,0.00,,,0.00,Wunderground v.1.15,2013-06-29 07:31:00,
2013-06-29 02:36:00,63.2,62.6,29.59,WNW,297,4.0,5.0,98,0.00,,,0.00,Wunderground v.1.15,2013-06-29 07:36:00,
2013-06-29 02:41:00,63.1,62.5,29.59,WNW,298,4.0,4.0,98,0.00,,,0.00,Wunderground v.1.15,2013-06-29 07:41:00,
2013-06-29 02:47:00,62.9,62.3,29.58,WNW,300,4.0,5.0,98,0.00,,,0.00,Wunderground v.1.15,2013-06-29 07:47:00,
2013-06-29 02:53:00,62.9,62.3,29.59,WNW,300,2.0,3.0,98,0.00,,,0.00,Wunderground v.1.15,2013-06-29 07:53:00,
2013-06-29 02:58:00,62.9,62.3,29.59,WNW,294,2.0,4.0,98,0.00,,,0.00,Wunderground v.1.15,2013-06-29 07:58:00,
2013-06-29 03:05:00,63.0,62.7,29.59,WNW,300,3.0,5.0,99,0.00,,,0.00,Wunderground v.1.15,2013-06-29 08:05:00,
2013-06-29 03:11:00,63.0,62.7,29.59,WNW,300,4.0,5.0,99,0.00,,,0.00,Wunderground v.1.15,2013-06-29 08:11:00,
2013-06-29 03:16:00,63.0,62.7,29.59,West,280,5.0,6.0,99,0.00,,,0.00,Wunderground v.1.15,2013-06-29 08:16:00,
2013-06-29 03:21:00,62.9,62.6,29.59,WNW,300,5.0,5.0,99,0.00,,,0.00,Wunderground v.1.15,2013-06-29 08:21:00,
2013-06-29 03:26:00,62.8,62.2,29.58,WNW,302,4.0,5.0,98,0.00,,,0.00,Wunderground v.1.15,2013-06-29 08:26:00,
2013-06-29 03:32:00,62.7,62.4,29.58,WNW,292,5.0,6.0,99,0.00,,,0.00,Wunderground v.1.15,2013-06-29 08:32:00,
2013-06-29 03:38:00,62.6,62.3,29.58,West,276,5.0,6.0,99,0.00,,,0.00,Wunderground v.1.15,2013-06-29 08:38:00,
2013-06-29 03:43:00,62.4,62.1,29.58,WNW,288,3.0,4.0,99,0.00,,,0.00,Wunderground v.1.15,2013-06-29 08:43:00,
2013-06-29 03:50:00,62.4,62.1,29.58,WNW,301,3.0,4.0,99,0.00,,,0.00,Wunderground v.1.15,2013-06-29 08:50:00,
2013-06-29 03:56:00,62.4,62.1,29.58,NW,309,3.0,4.0,99,0.00,,,0.00,Wunderground v.1.15,2013-06-29 08:56:00,
2013-06-29 04:01:00,62.3,62.0,29.58,NW,308,3.0,4.0,99,0.00,,,0.00,Wunderground v.1.15,2013-06-29 09:01:00,
2013-06-29 04:06:00,62.3,62.0,29.59,NW,313,4.0,4.0,99,0.00,,,0.00,Wunderground v.1.15,2013-06-29 09:06:00,
2013-06-29 04:11:00,62.4,62.1,29.59,NW,308,3.0,5.0,99,0.00,,,0.00,Wunderground v.1.15,2013-06-29 09:11:00,
2013-06-29 04:17:00,62.5,62.5,29.59,NW,313,4.0,5.0,100,0.00,,,0.00,Wunderground v.1.15,2013-06-29 09:17:00,
2013-06-29 04:23:00,62.7,62.7,29.59,NW,311,4.0,5.0,100,0.00,,,0.00,Wunderground v.1.15,2013-06-29 09:23:00,
2013-06-29 04:30:00,62.9,62.9,29.60,NW,309,4.0,5.0,100,0.00,,,0.00,Wunderground v.1.15,2013-06-29 09:30:00,
2013-06-29 04:36:00,63.0,63.0,29.60,NW,316,4.0,6.0,100,0.00,,,0.00,Wunderground v.1.15,2013-06-29 09:36:00,
2013-06-29 04:41:00,63.1,63.1,29.60,NW,314,4.0,4.0,100,0.00,,,0.00,Wunderground v.1.15,2013-06-29 09:41:00,
2013-06-29 04:46:00,63.1,63.1,29.60,WNW,298,3.0,6.0,100,0.00,,,0.00,Wunderground v.1.15,2013-06-29 09:46:00,
2013-06-29 04:51:00,63.2,63.2,29.60,NW,323,4.0,4.0,100,0.00,,,0.00,Wunderground v.1.15,2013-06-29 09:51:00,
2013-06-29 04:57:00,63.2,63.2,29.60,NW,315,4.0,4.0,100,0.00,,,0.00,Wunderground v.1.15,2013-06-29 09:57:00,
2013-06-29 05:03:00,63.4,63.4,29.60,NW,311,3.0,5.0,100,0.00,,,0.00,Wunderground v.1.15,2013-06-29 10:03:00,
2013-06-29 05:10:00,63.5,63.5,29.60,NW,315,3.0,5.0,100,0.00,,,0.00,Wunderground v.1.15,2013-06-29 10:10:00,
2013-06-29 05:15:00,63.6,63.6,29.60,NW,320,4.0,7.0,100,0.00,,,0.00,Wunderground v.1.15,2013-06-29 10:15:00,
2013-06-29 05:21:00,63.8,63.8,29.60,NNW,338,4.0,4.0,100,0.00,,,0.00,Wunderground v.1.15,2013-06-29 10:21:00,
2013-06-29 05:26:00,63.9,63.9,29.60,North,355,4.0,6.0,100,0.00,,,0.00,Wunderground v.1.15,2013-06-29 10:26:00,
2013-06-29 05:31:00,64.0,64.0,29.60,North,350,4.0,6.0,100,0.00,,,0.00,Wunderground v.1.15,2013-06-29 10:31:00,
2013-06-29 05:37:00,64.0,63.7,29.60,NNW,348,5.0,6.0,99,0.00,,,0.00,Wunderground v.1.15,2013-06-29 10:37:00,
2013-06-29 05:43:00,64.0,63.7,29.60,NNW,344,4.0,5.0,99,0.00,,,0.00,Wunderground v.1.15,2013-06-29 10:43:00,
2013-06-29 05:50:00,63.9,63.6,29.61,NNW,338,4.0,7.0,99,0.00,,,0.00,Wunderground v.1.15,2013-06-29 10:50:00,
2013-06-29 05:55:00,63.9,63.6,29.60,NNW,345,5.0,5.0,99,0.00,,,0.00,Wunderground v.1.15,2013-06-29 10:55:00,
2013-06-29 06:01:00,63.8,63.5,29.60,NNE,23,4.0,4.0,99,0.00,,,0.00,Wunderground v.1.15,2013-06-29 11:01:00,
2013-06-29 06:06:00,63.8,63.5,29.61,NNW,345,4.0,5.0,99,0.00,,,0.00,Wunderground v.1.15,2013-06-29 11:06:00,
2013-06-29 06:12:00,64.1,63.8,29.60,NNW,344,4.0,4.0,99,0.00,,,0.00,Wunderground v.1.15,2013-06-29 11:12:00,
2013-06-29 06:18:00,64.4,64.4,29.60,NNW,337,3.0,6.0,100,0.00,,,0.00,Wunderground v.1.15,2013-06-29 11:18:00,
2013-06-29 06:23:00,64.4,64.1,29.61,NNW,339,4.0,5.0,99,0.00,,,0.00,Wunderground v.1.15,2013-06-29 11:23:00,
2013-06-29 06:30:00,64.5,64.2,29.61,NNW,327,4.0,6.0,99,0.00,,,0.00,Wunderground v.1.15,2013-06-29 11:30:00,
2013-06-29 06:36:00,64.6,64.3,29.61,NNW,333,5.0,7.0,99,0.00,,,0.00,Wunderground v.1.15,2013-06-29 11:36:00,
2013-06-29 06:41:00,64.8,64.5,29.61,NW,326,5.0,5.0,99,0.00,,,0.00,Wunderground v.1.15,2013-06-29 11:41:00,
2013-06-29 06:46:00,65.1,64.8,29.61,NNW,338,6.0,9.0,99,0.00,,,0.00,Wunderground v.1.15,2013-06-29 11:46:00,
2013-06-29 06:52:00,65.4,65.1,29.61,North,5,6.0,6.0,99,0.00,,,0.00,Wunderground v.1.15,2013-06-29 11:52:00,
2013-06-29 06:57:00,65.4,65.1,29.61,NNE,17,5.0,6.0,99,0.00,,,0.00,Wunderground v.1.15,2013-06-29 11:57:00,
2013-06-29 07:03:00,65.6,65.0,29.61,NNW,335,5.0,7.0,98,0.00,,,0.00,Wunderground v.1.15,2013-06-29 12:03:00,
2013-06-29 07:10:00,65.7,65.1,29.61,NNW,331,5.0,7.0,98,0.00,,,0.00,Wunderground v.1.15,2013-06-29 12:10:00,
2013-06-29 07:16:00,65.7,65.1,29.61,NNW,336,5.0,6.0,98,0.00,,,0.00,Wunderground v.1.15,2013-06-29 12:16:00,
2013-06-29 07:21:00,65.8,65.2,29.61,NNW,329,4.0,4.0,98,0.00,,,0.00,Wunderground v.1.15,2013-06-29 12:21:00,
2013-06-29 07:27:00,65.9,65.3,29.61,NNW,344,4.0,6.0,98,0.00,,,0.00,Wunderground v.1.15,2013-06-29 12:27:00,
2013-06-29 07:32:00,65.9,65.3,29.61,NW,316,5.0,5.0,98,0.00,,,0.00,Wunderground v.1.15,2013-06-29 12:32:00,
2013-06-29 07:38:00,66.0,65.1,29.61,North,355,5.0,7.0,97,0.00,,,0.00,Wunderground v.1.15,2013-06-29 12:38:00,
2013-06-29 07:45:00,65.9,65.0,29.61,NNW,346,5.0,6.0,97,0.00,,,0.00,Wunderground v.1.15,2013-06-29 12:45:00,
2013-06-29 07:51:00,66.0,65.1,29.61,NNW,333,5.0,5.0,97,0.00,,,0.00,Wunderground v.1.15,2013-06-29 12:51:00,
2013-06-29 07:56:00,66.0,65.1,29.62,NNW,333,4.0,5.0,97,0.00,,,0.00,Wunderground v.1.15,2013-06-29 12:56:00,
2013-06-29 08:01:00,66.0,65.1,29.62,NNW,327,3.0,4.0,97,0.00,,,0.00,Wunderground v.1.15,2013-06-29 13:01:00,
2013-06-29 08:07:00,65.9,65.0,29.62,WNW,302,3.0,4.0,97,0.00,,,0.00,Wunderground v.1.15,2013-06-29 13:07:00,
2013-06-29 08:12:00,65.9,65.0,29.62,NW,304,4.0,5.0,97,0.00,,,0.00,Wunderground v.1.15,2013-06-29 13:12:00,
2013-06-29 08:18:00,65.8,64.9,29.61,NNW,335,5.0,8.0,97,0.00,,,0.00,Wunderground v.1.15,2013-06-29 13:18:00,
2013-06-29 08:25:00,65.8,64.9,29.61,NNW,331,6.0,6.0,97,0.00,,,0.00,Wunderground v.1.15,2013-06-29 13:25:00,
2013-06-29 08:31:00,65.8,64.9,29.61,NW,325,6.0,8.0,97,0.00,,,0.00,Wunderground v.1.15,2013-06-29 13:31:00,
2013-06-29 08:36:00,65.8,64.9,29.61,NNW,327,6.0,9.0,97,0.00,,,0.01,Wunderground v.1.15,2013-06-29 13:36:00,
2013-06-29 08:41:00,65.8,64.9,29.62,NNW,333,7.0,8.0,97,0.00,,,0.01,Wunderground v.1.15,2013-06-29 13:41:00,
2013-06-29 08:46:00,65.6,64.7,29.61,NW,324,7.0,12.0,97,0.00,,,0.01,Wunderground v.1.15,2013-06-29 13:46:00,
2013-06-29 08:52:00,65.3,64.7,29.61,NW,326,7.0,7.0,98,0.20,,,0.03,Wunderground v.1.15,2013-06-29 13:52:00,
2013-06-29 08:58:00,65.5,64.9,29.61,NNW,336,6.0,7.0,98,0.08,,,0.03,Wunderground v.1.15,2013-06-29 13:58:00,
2013-06-29 09:05:00,65.7,65.4,29.61,NW,323,4.0,6.0,99,0.04,,,0.03,Wunderground v.1.15,2013-06-29 14:05:00,
2013-06-29 09:10:00,65.9,65.6,29.61,NNW,328,4.0,6.0,99,0.00,,,0.03,Wunderground v.1.15,2013-06-29 14:10:00,
2013-06-29 09:16:00,66.3,66.0,29.61,North,350,5.0,7.0,99,0.00,,,0.03,Wunderground v.1.15,2013-06-29 14:16:00,
2013-06-29 09:21:00,66.6,66.3,29.61,NNW,329,5.0,6.0,99,0.00,,,0.03,Wunderground v.1.15,2013-06-29 14:21:00,
2013-06-29 09:27:00,66.9,66.3,29.61,North,349,6.0,9.0,98,0.00,,,0.03,Wunderground v.1.15,2013-06-29 14:27:00,
2013-06-29 09:32:00,67.4,66.8,29.61,NW,321,6.0,6.0,98,0.00,,,0.03,Wunderground v.1.15,2013-06-29 14:32:00,
2013-06-29 09:38:00,67.6,66.4,29.61,NNE,18,5.0,9.0,96,0.00,,,0.03,Wunderground v.1.15,2013-06-29 14:38:00,
2013-06-29 09:43:00,67.3,65.5,29.61,NNW,332,7.0,9.0,94,0.34,,,0.06,Wunderground v.1.15,2013-06-29 14:43:00,
2013-06-29 09:50:00,66.3,64.5,29.61,NW,309,8.0,12.0,94,1.17,,,0.16,Wunderground v.1.15,2013-06-29 14:50:00,
2013-06-29 09:56:00,65.9,64.4,29.61,NNE,26,9.0,13.0,95,3.58,,,0.27,Wunderground v.1.15,2013-06-29 14:56:00,
2013-06-29 10:01:00,65.0,63.5,29.61,NNW,339,10.0,10.0,95,0.92,,,0.40,Wunderground v.1.15,2013-06-29 15:01:00,
2013-06-29 10:06:00,64.5,63.6,29.61,NW,309,9.0,10.0,97,0.18,,,0.43,Wunderground v.1.15,2013-06-29 15:06:00,
2013-06-29 10:11:00,64.5,63.6,29.61,NW,319,7.0,7.0,97,0.18,,,0.44,Wunderground v.1.15,2013-06-29 15:11:00,
2013-06-29 10:17:00,64.5,63.6,29.61,NNW,327,7.0,8.0,97,0.07,,,0.44,Wunderground v.1.15,2013-06-29 15:17:00,
2013-06-29 10:22:00,64.7,64.1,29.61,NW,314,6.0,8.0,98,0.06,,,0.45,Wunderground v.1.15,2013-06-29 15:22:00,
2013-06-29 10:28:00,64.9,64.3,29.60,NW,322,6.0,8.0,98,0.06,,,0.45,Wunderground v.1.15,2013-06-29 15:28:00,
2013-06-29 10:35:00,65.3,65.0,29.61,NW,320,6.0,8.0,99,0.04,,,0.45,Wunderground v.1.15,2013-06-29 15:35:00,
2013-06-29 10:41:00,65.6,65.3,29.61,NW,324,5.0,5.0,99,0.00,,,0.45,Wunderground v.1.15,2013-06-29 15:41:00,
2013-06-29 10:46:00,65.9,65.6,29.61,NNW,337,5.0,6.0,99,0.00,,,0.45,Wunderground v.1.15,2013-06-29 15:46:00,
2013-06-29 10:51:00,66.1,65.8,29.61,NNW,336,5.0,6.0,99,0.00,,,0.45,Wunderground v.1.15,2013-06-29 15:51:00,
2013-06-29 10:57:00,66.3,65.7,29.61,NNE,17,6.0,13.0,98,0.00,,,0.45,Wunderground v.1.15,2013-06-29 15:57:00,
2013-06-29 11:02:00,66.6,65.7,29.62,NNE,23,9.0,13.0,97,0.00,,,0.45,Wunderground v.1.15,2013-06-29 16:02:00,
2013-06-29 11:08:00,67.5,66.3,29.62,NE,36,9.0,13.0,96,0.00,,,0.45,Wunderground v.1.15,2013-06-29 16:08:00,
2013-06-29 11:15:00,68.3,66.8,29.62,NE,49,9.0,10.0,95,0.00,,,0.45,Wunderground v.1.15,2013-06-29 16:15:00,
2013-06-29 11:21:00,69.0,66.6,29.62,North,11,11.0,18.0,92,0.00,,,0.45,Wunderground v.1.15,2013-06-29 16:21:00,
2013-06-29 11:26:00,69.2,65.8,29.62,NNE,33,13.0,18.0,89,0.00,,,0.45,Wunderground v.1.15,2013-06-29 16:26:00,
2013-06-29 11:31:00,68.8,65.7,29.62,NE,42,12.0,12.0,90,0.00,,,0.45,Wunderground v.1.15,2013-06-29 16:31:00,
2013-06-29 11:36:00,68.5,64.8,29.62,NE,56,10.0,12.0,88,0.00,,,0.45,Wunderground v.1.15,2013-06-29 16:36:00,
2013-06-29 11:42:00,68.2,64.5,29.62,NNE,30,11.0,15.0,88,0.00,,,0.45,Wunderground v.1.15,2013-06-29 16:42:00,
2013-06-29 11:48:00,68.1,64.4,29.62,ENE,67,12.0,15.0,88,0.00,,,0.45,Wunderground v.1.15,2013-06-29 16:48:00,
2013-06-29 11:54:00,68.3,64.9,29.62,NE,49,10.0,12.0,89,0.00,,,0.45,Wunderground v.1.15,2013-06-29 16:54:00,
2013-06-29 12:00:00,69.0,65.6,29.63,NNE,26,10.0,12.0,89,0.00,,,0.45,Wunderground v.1.15,2013-06-29 17:00:00,
2013-06-29 12:06:00,69.4,64.7,29.63,North,355,11.0,13.0,85,0.00,,,0.45,Wunderground v.1.15,2013-06-29 17:06:00,
2013-06-29 12:11:00,69.3,65.3,29.63,North,5,11.0,17.0,87,0.00,,,0.45,Wunderground v.1.15,2013-06-29 17:11:00,
2013-06-29 12:16:00,67.6,64.2,29.63,NNW,331,10.0,17.0,89,0.00,,,0.45,Wunderground v.1.15,2013-06-29 17:16:00,
2013-06-29 12:22:00,66.6,63.9,29.63,NNW,342,12.0,15.0,91,0.00,,,0.45,Wunderground v.1.15,2013-06-29 17:22:00,
2013-06-29 12:27:00,66.5,64.4,29.63,NE,48,14.0,21.0,93,0.00,,,0.45,Wunderground v.1.15,2013-06-29 17:27:00,
2013-06-29 12:33:00,65.4,63.6,29.63,NE,36,15.0,17.0,94,0.00,,,0.45,Wunderground v.1.15,2013-06-29 17:33:00,
2013-06-29 12:39:00,64.7,63.2,29.64,NNE,30,15.0,17.0,95,0.00,,,0.46,Wunderground v.1.15,2013-06-29 17:39:00,
2013-06-29 12:45:00,64.5,63.3,29.64,NNE,30,14.0,20.0,96,0.09,,,0.47,Wunderground v.1.15,2013-06-29 17:45:00,
2013-06-29 12:51:00,64.7,63.8,29.64,NE,43,12.0,12.0,97,0.06,,,0.47,Wunderground v.1.15,2013-06-29 17:51:00,
2013-06-29 12:56:00,65.1,64.5,29.64,NNE,22,10.0,12.0,98,0.04,,,0.47,Wunderground v.1.15,2013-06-29 17:56:00,
2013-06-29 13:01:00,65.4,64.5,29.64,North,360,9.0,10.0,97,0.00,,,0.47,Wunderground v.1.15,2013-06-29 18:01:00,
2013-06-29 13:07:00,65.8,64.9,29.64,NNE,24,10.0,14.0,97,0.00,,,0.47,Wunderground v.1.15,2013-06-29 18:07:00,
2013-06-29 13:13:00,66.3,65.4,29.64,NE,49,11.0,13.0,97,0.00,,,0.47,Wunderground v.1.15,2013-06-29 18:13:00,
2013-06-29 13:18:00,66.7,65.2,29.64,North,5,12.0,18.0,95,0.00,,,0.47,Wunderground v.1.15,2013-06-29 18:18:00,
2013-06-29 13:25:00,67.2,65.7,29.64,NNE,29,14.0,15.0,95,0.00,,,0.47,Wunderground v.1.15,2013-06-29 18:25:00,
2013-06-29 13:31:00,67.3,65.2,29.64,NNE,30,13.0,13.0,93,0.00,,,0.47,Wunderground v.1.15,2013-06-29 18:31:00,
2013-06-29 13:35:00,67.0,64.6,29.64,NE,37,13.0,17.0,92,0.00,,,0.47,Wunderground v.1.15,2013-06-29 18:35:00,
2013-06-29 13:40:00,67.2,65.1,29.64,NNE,28,14.0,17.0,93,0.00,,,0.47,Wunderground v.1.15,2013-06-29 18:40:00,
2013-06-29 13:46:00,67.4,65.3,29.65,NE,44,13.0,16.0,93,0.00,,,0.47,Wunderground v.1.15,2013-06-29 18:46:00,
2013-06-29 13:51:00,67.6,65.2,29.65,NNE,22,13.0,15.0,92,0.00,,,0.47,Wunderground v.1.15,2013-06-29 18:51:00,
2013-06-29 13:56:00,67.7,65.3,29.64,NNE,30,13.0,16.0,92,0.00,,,0.47,Wunderground v.1.15,2013-06-29 18:56:00,
2013-06-29 14:02:00,67.9,65.5,29.65,NNE,17,14.0,14.0,92,0.00,,,0.47,Wunderground v.1.15,2013-06-29 19:02:00,
2013-06-29 14:07:00,67.7,65.0,29.65,NE,42,12.0,14.0,91,0.00,,,0.47,Wunderground v.1.15,2013-06-29 19:07:00,
2013-06-29 14:13:00,67.4,65.0,29.65,NE,45,12.0,14.0,92,0.00,,,0.47,Wunderground v.1.15,2013-06-29 19:13:00,
2013-06-29 14:18:00,67.6,64.6,29.65,NNE,23,12.0,14.0,90,0.00,,,0.47,Wunderground v.1.15,2013-06-29 19:18:00,
2013-06-29 14:25:00,67.9,64.5,29.65,ENE,65,13.0,16.0,89,0.00,,,0.47,Wunderground v.1.15,2013-06-29 19:25:00,
2013-06-29 14:30:00,67.8,64.4,29.65,NE,44,13.0,18.0,89,0.00,,,0.47,Wunderground v.1.15,2013-06-29 19:30:00,
2013-06-29 14:36:00,67.9,64.5,29.65,NE,37,13.0,17.0,89,0.00,,,0.47,Wunderground v.1.15,2013-06-29 19:36:00,
2013-06-29 14:41:00,68.0,64.6,29.66,ENE,57,13.0,13.0,89,0.00,,,0.47,Wunderground v.1.15,2013-06-29 19:41:00,
2013-06-29 14:46:00,68.0,64.6,29.66,NE,54,12.0,15.0,89,0.00,,,0.47,Wunderground v.1.15,2013-06-29 19:46:00,
2013-06-29 14:52:00,67.8,64.4,29.66,NE,36,13.0,13.0,89,0.00,,,0.47,Wunderground v.1.15,2013-06-29 19:52:00,
2013-06-29 14:57:00,67.7,64.3,29.66,NE,40,12.0,14.0,89,0.00,,,0.47,Wunderground v.1.15,2013-06-29 19:57:00,
2013-06-29 15:03:00,67.8,64.8,29.66,NE,47,11.0,15.0,90,0.00,,,0.47,Wunderground v.1.15,2013-06-29 20:03:00,
2013-06-29 15:09:00,68.0,64.3,29.66,NNE,24,12.0,15.0,88,0.00,,,0.47,Wunderground v.1.15,2013-06-29 20:09:00,
2013-06-29 15:15:00,68.2,64.8,29.66,NNE,32,12.0,13.0,89,0.00,,,0.47,Wunderground v.1.15,2013-06-29 20:15:00,
2013-06-29 15:21:00,68.5,65.1,29.67,NNE,25,11.0,14.0,89,0.00,,,0.47,Wunderground v.1.15,2013-06-29 20:21:00,
2013-06-29 15:26:00,68.7,65.3,29.67,NE,46,10.0,14.0,89,0.00,,,0.47,Wunderground v.1.15,2013-06-29 20:26:00,
2013-06-29 15:31:00,68.4,64.4,29.67,NNE,30,11.0,14.0,87,0.00,,,0.47,Wunderground v.1.15,2013-06-29 20:31:00,
2013-06-29 15:37:00,68.8,65.1,29.67,ENE,59,11.0,14.0,88,0.00,,,0.47,Wunderground v.1.15,2013-06-29 20:37:00,
2013-06-29 15:43:00,69.0,65.0,29.67,NE,47,11.0,17.0,87,0.00,,,0.47,Wunderground v.1.15,2013-06-29 20:43:00,
2013-06-29 15:48:00,69.3,65.3,29.67,NNE,22,13.0,17.0,87,0.00,,,0.47,Wunderground v.1.15,2013-06-29 20:48:00,
2013-06-29 15:55:00,70.2,65.8,29.67,ENE,62,12.0,14.0,86,0.00,,,0.47,Wunderground v.1.15,2013-06-29 20:55:00,
2013-06-29 16:01:00,69.8,64.1,29.67,NNE,20,11.0,11.0,82,0.00,,,0.47,Wunderground v.1.15,2013-06-29 21:01:00,
2013-06-29 16:06:00,69.4,64.7,29.67,NE,41,12.0,14.0,85,0.00,,,0.47,Wunderground v.1.15,2013-06-29 21:06:00,
2013-06-29 16:11:00,69.4,64.7,29.67,NE,36,10.0,10.0,85,0.00,,,0.47,Wunderground v.1.15,2013-06-29 21:11:00,
2013-06-29 16:17:00,70.3,65.2,29.67,NE,44,9.0,17.0,84,0.00,,,0.47,Wunderground v.1.15,2013-06-29 21:17:00,
2013-06-29 16:22:00,70.3,64.5,29.67,NE,35,11.0,11.0,82,0.00,,,0.47,Wunderground v.1.15,2013-06-29 21:22:00,
2013-06-29 16:28:00,70.8,65.4,29.67,NE,37,11.0,11.0,83,0.00,,,0.47,Wunderground v.1.15,2013-06-29 21:28:00,
2013-06-29 16:34:00,70.8,64.7,29.67,NE,49,11.0,14.0,81,0.00,,,0.47,Wunderground v.1.15,2013-06-29 21:34:00,
2013-06-29 16:39:00,70.9,64.1,29.67,NE,41,11.0,16.0,79,0.00,,,0.47,Wunderground v.1.15,2013-06-29 21:39:00,
2013-06-29 16:45:00,70.7,63.9,29.67,NE,47,13.0,16.0,79,0.00,,,0.47,Wunderground v.1.15,2013-06-29 21:45:00,
2013-06-29 16:51:00,70.6,63.4,29.67,ENE,58,12.0,14.0,78,0.00,,,0.47,Wunderground v.1.15,2013-06-29 21:51:00,
2013-06-29 16:56:00,70.3,62.7,29.67,NE,36,13.0,20.0,77,0.00,,,0.47,Wunderground v.1.15,2013-06-29 21:56:00,
2013-06-29 17:02:00,70.3,63.1,29.67,NE,45,13.0,13.0,78,0.00,,,0.47,Wunderground v.1.15,2013-06-29 22:02:00,
2013-06-29 17:08:00,70.8,63.6,29.67,NE,49,11.0,13.0,78,0.00,,,0.47,Wunderground v.1.15,2013-06-29 22:08:00,
2013-06-29 17:13:00,70.9,63.3,29.67,ENE,63,10.0,11.0,77,0.00,,,0.47,Wunderground v.1.15,2013-06-29 22:13:00,
2013-06-29 17:19:00,71.0,63.8,29.67,NE,42,10.0,14.0,78,0.00,,,0.47,Wunderground v.1.15,2013-06-29 22:19:00,
2013-06-29 17:25:00,71.9,64.7,29.67,NE,49,10.0,12.0,78,0.00,,,0.47,Wunderground v.1.15,2013-06-29 22:25:00,
2013-06-29 17:31:00,71.9,63.5,29.67,NE,52,10.0,10.0,75,0.00,,,0.47,Wunderground v.1.15,2013-06-29 22:31:00,
2013-06-29 17:37:00,72.5,64.1,29.68,ENE,63,10.0,16.0,75,0.00,,,0.47,Wunderground v.1.15,2013-06-29 22:37:00,
2013-06-29 17:43:00,72.0,63.3,29.67,NE,51,10.0,12.0,74,0.00,,,0.47,Wunderground v.1.15,2013-06-29 22:43:00,
2013-06-29 17:49:00,72.3,63.2,29.68,NNE,29,10.0,13.0,73,0.00,,,0.47,Wunderground v.1.15,2013-06-29 22:49:00,
2013-06-29 17:55:00,72.4,61.7,29.68,NE,47,11.0,15.0,69,0.00,,,0.47,Wunderground v.1.15,2013-06-29 22:55:00,
2013-06-29 18:00:00,72.4,63.6,29.68,NNE,13,11.0,11.0,74,0.00,,,0.47,Wunderground v.1.15,2013-06-29 23:00:00,
2013-06-29 18:06:00,72.4,62.5,29.68,NE,53,10.0,12.0,71,0.00,,,0.47,Wunderground v.1.15,2013-06-29 23:06:00,
2013-06-29 18:12:00,72.3,62.8,29.68,NE,36,11.0,13.0,72,0.00,,,0.47,Wunderground v.1.15,2013-06-29 23:12:00,
2013-06-29 18:18:00,72.0,61.7,29.68,NE,38,13.0,20.0,70,0.00,,,0.47,Wunderground v.1.15,2013-06-29 23:18:00,
2013-06-29 18:24:00,71.7,61.0,29.68,NE,45,14.0,14.0,69,0.00,,,0.47,Wunderground v.1.15,2013-06-29 23:24:00,
2013-06-29 18:30:00,70.9,61.0,29.69,NNE,18,14.0,14.0,71,0.00,,,0.47,Wunderground v.1.15,2013-06-29 23:30:00,
2013-06-29 18:35:00,70.4,60.9,29.69,NE,36,13.0,15.0,72,0.00,,,0.47,Wunderground v.1.15,2013-06-29 23:35:00,
2013-06-29 18:41:00,70.2,61.1,29.69,NNE,14,12.0,12.0,73,0.00,,,0.47,Wunderground v.1.15,2013-06-29 23:41:00,
2013-06-29 18:47:00,69.5,63.1,29.70,NNW,327,11.0,12.0,80,0.00,,,0.47,Wunderground v.1.15,2013-06-29 23:47:00,
2013-06-29 18:53:00,68.7,63.0,29.70,North,355,9.0,11.0,82,0.00,,,0.47,Wunderground v.1.15,2013-06-29 23:53:00,
2013-06-29 18:58:00,68.2,62.8,29.70,NW,324,8.0,11.0,83,0.00,,,0.47,Wunderground v.1.15,2013-06-29 23:58:00,
2013-06-29 19:04:00,67.9,62.9,29.70,NNW,338,7.0,10.0,84,0.00,,,0.47,Wunderground v.1.15,2013-06-30 00:04:00,
2013-06-29 19:10:00,67.8,63.1,29.71,NNE,17,7.0,7.0,85,0.00,,,0.47,Wunderground v.1.15,2013-06-30 00:10:00,
2013-06-29 19:16:00,67.7,63.4,29.71,North,360,6.0,10.0,86,0.00,,,0.47,Wunderground v.1.15,2013-06-30 00:16:00,
2013-06-29 19:21:00,67.7,63.4,29.71,North,349,6.0,9.0,86,0.00,,,0.47,Wunderground v.1.15,2013-06-30 00:21:00,
2013-06-29 19:27:00,67.7,63.7,29.71,NNE,22,5.0,9.0,87,0.00,,,0.47,Wunderground v.1.15,2013-06-30 00:27:00,
2013-06-29 19:33:00,67.7,63.7,29.72,NNE,26,5.0,7.0,87,0.00,,,0.47,Wunderground v.1.15,2013-06-30 00:33:00,
2013-06-29 19:39:00,67.9,63.9,29.72,NNE,23,6.0,7.0,87,0.00,,,0.47,Wunderground v.1.15,2013-06-30 00:39:00,
2013-06-29 19:44:00,67.9,63.9,29.72,NNE,19,5.0,6.0,87,0.00,,,0.47,Wunderground v.1.15,2013-06-30 00:44:00,
2013-06-29 19:50:00,67.8,63.8,29.73,NNE,14,5.0,5.0,87,0.00,,,0.47,Wunderground v.1.15,2013-06-30 00:50:00,
2013-06-29 19:56:00,67.7,63.7,29.73,North,5,4.0,5.0,87,0.00,,,0.47,Wunderground v.1.15,2013-06-30 00:56:00,
2013-06-29 20:01:00,67.5,63.8,29.73,North,5,3.0,5.0,88,0.00,,,0.47,Wunderground v.1.15,2013-06-30 01:01:00,
2013-06-29 20:07:00,67.4,64.0,29.73,North,5,3.0,5.0,89,0.00,,,0.47,Wunderground v.1.15,2013-06-30 01:07:00,
2013-06-29 20:12:00,67.2,63.8,29.73,NNE,18,4.0,5.0,89,0.00,,,0.47,Wunderground v.1.15,2013-06-30 01:12:00,
2013-06-29 20:18:00,67.2,63.5,29.73,NNE,18,3.0,5.0,88,0.00,,,0.47,Wunderground v.1.15,2013-06-30 01:18:00,
2013-06-29 20:24:00,67.2,62.2,29.73,NNE,30,3.0,5.0,84,0.00,,,0.47,Wunderground v.1.15,2013-06-30 01:24:00,
2013-06-29 20:29:00,67.3,62.3,29.73,North,355,4.0,6.0,84,0.00,,,0.47,Wunderground v.1.15,2013-06-30 01:29:00,
2013-06-29 20:35:00,67.3,63.0,29.73,North,360,4.0,4.0,86,0.00,,,0.47,Wunderground v.1.15,2013-06-30 01:35:00,
2013-06-29 20:41:00,67.1,63.1,29.73,North,360,3.0,3.0,87,0.00,,,0.47,Wunderground v.1.15,2013-06-30 01:41:00,
2013-06-29 20:46:00,67.0,63.0,29.73,North,360,3.0,4.0,87,0.00,,,0.47,Wunderground v.1.15,2013-06-30 01:46:00,
2013-06-29 20:52:00,66.9,62.9,29.73,North,360,3.0,4.0,87,0.00,,,0.47,Wunderground v.1.15,2013-06-30 01:52:00,
2013-06-29 20:58:00,66.9,62.9,29.74,North,360,3.0,4.0,87,0.00,,,0.47,Wunderground v.1.15,2013-06-30 01:58:00,
2013-06-29 21:03:00,66.9,63.6,29.74,North,360,2.0,2.0,89,0.00,,,0.47,Wunderground v.1.15,2013-06-30 02:03:00,
2013-06-29 21:09:00,66.7,63.4,29.74,North,360,2.0,3.0,89,0.00,,,0.47,Wunderground v.1.15,2013-06-30 02:09:00,
2013-06-29 21:15:00,66.5,62.8,29.74,North,360,3.0,5.0,88,0.00,,,0.47,Wunderground v.1.15,2013-06-30 02:15:00,
2013-06-29 21:20:00,66.7,61.4,29.75,North,10,5.0,9.0,83,0.00,,,0.47,Wunderground v.1.15,2013-06-30 02:20:00,
2013-06-29 21:26:00,67.0,61.3,29.75,North,349,7.0,11.0,82,0.00,,,0.47,Wunderground v.1.15,2013-06-30 02:26:00,
2013-06-29 21:31:00,67.0,61.3,29.75,North,360,8.0,10.0,82,0.00,,,0.47,Wunderground v.1.15,2013-06-30 02:31:00,
2013-06-29 21:37:00,67.1,61.4,29.75,North,5,7.0,10.0,82,0.00,,,0.47,Wunderground v.1.15,2013-06-30 02:37:00,
2013-06-29 21:42:00,66.9,61.6,29.76,NNE,26,6.0,6.0,83,0.00,,,0.47,Wunderground v.1.15,2013-06-30 02:42:00,
2013-06-29 21:48:00,66.7,61.7,29.76,NE,53,5.0,6.0,84,0.00,,,0.47,Wunderground v.1.15,2013-06-30 02:48:00,
2013-06-29 21:54:00,66.7,61.7,29.76,NE,45,5.0,6.0,84,0.00,,,0.47,Wunderground v.1.15,2013-06-30 02:54:00,
2013-06-29 22:00:00,66.7,61.0,29.77,NNE,32,6.0,6.0,82,0.00,,,0.47,Wunderground v.1.15,2013-06-30 03:00:00,
2013-06-29 22:05:00,66.6,60.9,29.77,NE,46,6.0,8.0,82,0.00,,,0.47,Wunderground v.1.15,2013-06-30 03:05:00,
2013-06-29 22:11:00,66.7,60.3,29.77,NNE,32,7.0,7.0,80,0.00,,,0.47,Wunderground v.1.15,2013-06-30 03:11:00,
2013-06-29 22:16:00,66.6,60.2,29.77,NNE,22,7.0,8.0,80,0.00,,,0.47,Wunderground v.1.15,2013-06-30 03:16:00,
2013-06-29 22:22:00,66.5,60.1,29.77,NNE,30,6.0,6.0,80,0.00,,,0.47,Wunderground v.1.15,2013-06-30 03:22:00,
2013-06-29 22:28:00,66.2,59.8,29.77,North,5,5.0,6.0,80,0.00,,,0.47,Wunderground v.1.15,2013-06-30 03:28:00,
2013-06-29 22:34:00,65.8,59.8,29.77,North,360,4.0,6.0,81,0.00,,,0.47,Wunderground v.1.15,2013-06-30 03:34:00,
2013-06-29 22:40:00,65.4,59.4,29.77,NNE,12,4.0,5.0,81,0.00,,,0.47,Wunderground v.1.15,2013-06-30 03:40:00,
2013-06-29 22:45:00,65.1,59.5,29.77,North,5,4.0,5.0,82,0.00,,,0.47,Wunderground v.1.15,2013-06-30 03:45:00,
2013-06-29 22:51:00,64.8,59.5,29.77,North,355,4.0,5.0,83,0.00,,,0.47,Wunderground v.1.15,2013-06-30 03:51:00,
2013-06-29 22:57:00,64.5,59.6,29.77,North,11,5.0,6.0,84,0.00,,,0.47,Wunderground v.1.15,2013-06-30 03:57:00,
2013-06-29 23:01:00,64.5,59.2,29.77,NNE,19,5.0,5.0,83,0.00,,,0.47,Wunderground v.1.15,2013-06-30 04:01:00,
2013-06-29 23:02:00,64.5,59.2,29.77,NNE,13,5.0,5.0,83,0.00,,,0.47,Wunderground v.1.15,2013-06-30 04:02:00,
2013-06-29 23:04:00,64.5,59.6,29.77,NNE,13,5.0,5.0,84,0.00,,,0.47,Wunderground v.1.15,2013-06-30 04:04:00,
2013-06-29 23:07:00,64.4,59.5,29.77,NNE,13,5.0,5.0,84,0.00,,,0.47,Wunderground v.1.15,2013-06-30 04:07:00,
2013-06-29 23:12:00,64.3,59.4,29.77,NNE,15,5.0,5.0,84,0.00,,,0.47,Wunderground v.1.15,2013-06-30 04:12:00,
2013-06-29 23:18:00,64.2,59.3,29.77,NNE,15,4.0,5.0,84,0.00,,,0.47,Wunderground v.1.15,2013-06-30 04:18:00,
2013-06-29 23:24:00,63.9,59.0,29.77,NNE,15,4.0,5.0,84,0.00,,,0.47,Wunderground v.1.15,2013-06-30 04:24:00,
2013-06-29 23:30:00,63.6,59.0,29.78,NNE,15,4.0,4.0,85,0.00,,,0.47,Wunderground v.1.15,2013-06-30 04:30:00,
2013-06-29 23:36:00,63.4,59.1,29.78,NNE,15,3.0,4.0,86,0.00,,,0.47,Wunderground v.1.15,2013-06-30 04:36:00,
2013-06-29 23:41:00,63.3,59.7,29.78,North,360,4.0,4.0,88,0.00,,,0.47,Wunderground v.1.15,2013-06-30 04:41:00,
2013-06-29 23:47:00,63.2,59.9,29.78,North,351,4.0,5.0,89,0.00,,,0.47,Wunderground v.1.15,2013-06-30 04:47:00,
2013-06-29 23:53:00,63.2,60.2,29.78,North,5,5.0,7.0,90,0.00,,,0.47,Wunderground v.1.15,2013-06-30 04:53:00,
2013-06-29 23:58:00,63.2,60.2,29.78,North,11,5.0,7.0,90,0.00,,,0.47,Wunderground v.1.15,2013-06-30 04:58:00,